Time;durP1;ratioP1;P1;durP2;ratioP2;P2;SDS_P1;SDS_P2;PMS_P1;PMS_P2;Temp;Humidity;BMP_temperature;BMP_pressure;BME280_temperature;BME280_humidity;BME280_pressure;Samples;Min_cycle;Max_cycle;Signal;HPM_P1;HPM_P2
2023/07/13 00:01:14;;;;;;;3.70;3.28;;;;;;;24.00;100.00;99318.53;5025696;28;20060;-78
2023/07/13 00:03:40;;;;;;;6.00;3.50;;;;;;;23.96;100.00;99328.16;5023868;28;20036;-77
2023/07/13 00:06:07;;;;;;;4.40;3.38;;;;;;;23.96;100.00;99333.53;5032564;28;20029;-78
2023/07/13 00:08:33;;;;;;;5.47;3.72;;;;;;;23.95;100.00;99337.28;5024324;28;20087;-78
2023/07/13 00:11:00;;;;;;;4.75;3.72;;;;;;;23.93;100.00;99343.94;5026045;28;20381;-78
2023/07/13 00:13:25;;;;;;;5.22;3.90;;;;;;;23.83;100.00;99349.94;5025837;28;20029;-77
2023/07/13 00:15:51;;;;;;;4.13;3.72;;;;;;;23.79;100.00;99356.84;5023870;28;20091;-78
2023/07/13 00:18:16;;;;;;;4.57;3.30;;;;;;;23.77;100.00;99367.03;5022779;28;20065;-78
2023/07/13 00:20:43;;;;;;;7.38;3.58;;;;;;;23.75;100.00;99369.13;5027007;28;20076;-78
2023/07/13 00:23:08;;;;;;;4.65;3.80;;;;;;;23.76;100.00;99376.16;5022370;28;20033;-78
2023/07/13 00:25:34;;;;;;;7.05;3.70;;;;;;;23.73;100.00;99373.94;5028428;28;20048;-77
2023/07/13 00:28:00;;;;;;;3.67;3.38;;;;;;;23.64;100.00;99383.41;5024173;28;20441;-78
2023/07/13 00:30:26;;;;;;;6.70;4.00;;;;;;;23.66;100.00;99375.91;5025986;28;20042;-78
2023/07/13 00:32:51;;;;;;;3.60;3.30;;;;;;;23.64;100.00;99378.00;5025856;28;20069;-78
2023/07/13 00:35:17;;;;;;;5.30;3.50;;;;;;;23.61;100.00;99384.69;5029762;28;20033;-77
2023/07/13 00:37:42;;;;;;;3.30;3.00;;;;;;;23.63;100.00;99370.97;5027130;28;20116;-77
2023/07/13 00:40:10;;;;;;;3.47;3.17;;;;;;;23.60;100.00;99371.44;5027609;28;20025;-78
2023/07/13 00:42:35;;;;;;;4.47;3.45;;;;;;;23.61;100.00;99373.09;5022131;28;20037;-78
2023/07/13 00:45:03;;;;;;;6.60;2.78;;;;;;;23.57;100.00;99388.88;5029026;28;20044;-78
2023/07/13 00:47:28;;;;;;;5.57;3.70;;;;;;;23.53;100.00;99376.13;5035285;28;20105;-78
2023/07/13 00:49:54;;;;;;;6.82;3.13;;;;;;;23.53;100.00;99384.19;5022944;28;20483;-78
2023/07/13 00:52:19;;;;;;;5.85;3.10;;;;;;;23.55;100.00;99379.41;5028746;28;20053;-78
2023/07/13 00:54:46;;;;;;;5.43;3.55;;;;;;;23.56;100.00;99381.06;5025720;28;20022;-77
2023/07/13 00:57:18;;;;;;;5.90;3.50;;;;;;;23.52;100.00;99382.53;5023630;28;20587;-77
2023/07/13 00:59:50;;;;;;;3.67;3.13;;;;;;;23.55;100.00;99379.41;5024435;28;20061;-77
2023/07/13 01:02:16;;;;;;;4.38;3.97;;;;;;;23.54;100.00;99375.88;5023919;28;20469;-78
2023/07/13 01:04:43;;;;;;;4.30;3.13;;;;;;;23.53;100.00;99381.50;5027479;28;20036;-78
2023/07/13 01:07:11;;;;;;;5.15;3.60;;;;;;;23.48;100.00;99384.06;5026761;28;20025;-77
2023/07/13 01:09:37;;;;;;;5.68;3.30;;;;;;;23.39;100.00;99372.75;5008293;28;20041;-77
2023/07/13 01:12:04;;;;;;;5.32;3.60;;;;;;;23.40;100.00;99378.97;5027552;28;20034;-78
2023/07/13 01:14:30;;;;;;;3.83;3.00;;;;;;;23.41;100.00;99372.53;5020290;28;20064;-76
2023/07/13 01:16:56;;;;;;;4.18;3.15;;;;;;;23.40;100.00;99381.66;5020714;28;20033;-77
2023/07/13 01:19:43;;;;;;;7.97;4.75;;;;;;;23.27;100.00;99388.88;5022914;28;20037;-77
2023/07/13 01:22:13;;;;;;;3.50;3.20;;;;;;;23.24;100.00;99370.50;5040954;28;20451;-77
2023/07/13 01:24:42;;;;;;;4.32;3.40;;;;;;;23.18;100.00;99371.41;5027437;28;20109;-76
2023/07/13 01:27:09;;;;;;;6.35;3.65;;;;;;;23.14;100.00;99372.94;5026715;28;20017;-77
2023/07/13 01:29:41;;;;;;;5.65;3.22;;;;;;;23.10;100.00;99371.72;5020502;28;20091;-76
2023/07/13 01:32:08;;;;;;;8.70;3.67;;;;;;;23.08;100.00;99371.16;5029883;28;20029;-77
2023/07/13 01:34:33;;;;;;;4.68;3.17;;;;;;;22.96;100.00;99369.44;5027647;28;20044;-77
2023/07/13 01:36:59;;;;;;;5.03;2.92;;;;;;;22.96;100.00;99381.03;5031227;28;20042;-77
2023/07/13 01:39:24;;;;;;;3.65;2.97;;;;;;;22.97;100.00;99381.88;5027510;28;20034;-76
2023/07/13 01:41:50;;;;;;;5.75;3.92;;;;;;;22.95;100.00;99383.94;5027319;28;20033;-78
2023/07/13 01:44:17;;;;;;;4.07;2.90;;;;;;;22.92;100.00;99390.59;5028663;28;20040;-78
2023/07/13 01:46:43;;;;;;;4.60;3.08;;;;;;;22.88;100.00;99388.59;5028891;28;20029;-78
2023/07/13 01:49:08;;;;;;;5.50;3.05;;;;;;;22.92;100.00;99390.59;5025906;28;20450;-78
2023/07/13 01:51:34;;;;;;;3.63;3.00;;;;;;;22.90;100.00;99395.41;5032077;28;20804;-78
2023/07/13 01:53:59;;;;;;;3.92;3.10;;;;;;;22.88;100.00;99392.09;5026342;28;20116;-77
2023/07/13 01:56:24;;;;;;;4.07;3.05;;;;;;;22.86;100.00;99402.25;5026115;28;20025;-77
2023/07/13 01:58:52;;;;;;;3.45;2.63;;;;;;;22.90;100.00;99398.09;5027394;28;20025;-78
2023/07/13 02:01:18;;;;;;;3.65;2.58;;;;;;;22.87;100.00;99398.53;5027872;28;20389;-78
2023/07/13 02:03:43;;;;;;;4.75;3.03;;;;;;;22.86;100.00;99394.19;5026330;28;20029;-78
2023/07/13 02:06:08;;;;;;;6.75;3.38;;;;;;;22.84;100.00;99399.81;5031149;28;20021;-78
2023/07/13 02:08:34;;;;;;;3.80;3.13;;;;;;;22.82;100.00;99401.91;5041813;28;20494;-77
2023/07/13 02:11:02;;;;;;;6.03;3.15;;;;;;;22.79;100.00;99401.53;5031927;28;20470;-77
2023/07/13 02:13:28;;;;;;;5.85;3.20;;;;;;;22.80;100.00;99395.09;5026818;28;20034;-77
2023/07/13 02:15:53;;;;;;;2.95;2.47;;;;;;;22.76;100.00;99400.09;5028089;28;20048;-77
2023/07/13 02:18:19;;;;;;;4.40;2.67;;;;;;;22.71;100.00;99394.56;5030020;28;20064;-78
2023/07/13 02:20:45;;;;;;;3.17;2.55;;;;;;;22.73;100.00;99397.88;5028497;28;20044;-77
2023/07/13 02:23:11;;;;;;;6.43;2.78;;;;;;;22.73;100.00;99402.44;5025428;28;20041;-77
2023/07/13 02:25:37;;;;;;;3.55;2.60;;;;;;;22.76;100.00;99408.19;5030970;28;20033;-77
2023/07/13 02:28:03;;;;;;;5.55;3.08;;;;;;;22.76;100.00;99418.94;5028031;28;20397;-77
2023/07/13 02:30:29;;;;;;;3.60;3.00;;;;;;;22.73;100.00;99418.59;5026720;28;20034;-76
2023/07/13 02:32:56;;;;;;;2.55;2.35;;;;;;;22.71;100.00;99407.19;5028671;28;20063;-77
2023/07/13 02:35:21;;;;;;;4.22;2.50;;;;;;;22.73;100.00;99405.13;5032243;28;20485;-77
2023/07/13 02:37:47;;;;;;;4.82;2.78;;;;;;;22.71;100.00;99412.56;5026220;28;20045;-77
2023/07/13 02:40:12;;;;;;;2.60;2.40;;;;;;;22.70;100.00;99408.22;5029655;28;20112;-77
2023/07/13 02:42:38;;;;;;;3.90;2.45;;;;;;;22.70;100.00;99413.59;5026582;28;20065;-77
2023/07/13 02:45:04;;;;;;;4.50;2.50;;;;;;;22.73;100.00;99418.59;5027621;28;20515;-78
2023/07/13 02:47:32;;;;;;;5.35;2.80;;;;;;;22.76;100.00;99428.88;5028249;28;20029;-78
2023/07/13 02:49:57;;;;;;;2.92;2.28;;;;;;;22.74;100.00;99439.03;5023562;28;20117;-75
2023/07/13 02:52:23;;;;;;;6.18;2.50;;;;;;;22.71;100.00;99432.22;5044880;28;20596;-78
2023/07/13 02:54:48;;;;;;;3.90;2.60;;;;;;;22.73;100.00;99432.03;5023837;28;20112;-78
2023/07/13 02:57:14;;;;;;;3.65;2.85;;;;;;;22.74;100.00;99437.16;5027817;28;20025;-77
2023/07/13 02:59:39;;;;;;;5.03;2.90;;;;;;;22.75;100.00;99438.81;5025394;28;20056;-77
2023/07/13 03:02:05;;;;;;;4.35;2.30;;;;;;;22.76;100.00;99440.47;5027848;28;20374;-77
2023/07/13 03:04:30;;;;;;;3.63;2.63;;;;;;;22.73;100.00;99440.09;5024545;28;20031;-76
2023/07/13 03:06:57;;;;;;;4.72;2.35;;;;;;;22.71;100.00;99442.16;5026809;28;20029;-77
2023/07/13 03:09:28;;;;;;;3.40;2.40;;;;;;;22.74;100.00;99447.09;5026213;28;20032;-77
2023/07/13 03:11:55;;;;;;;5.18;2.78;;;;;;;22.78;100.00;99434.88;5024652;28;20490;-77
2023/07/13 03:14:26;;;;;;;3.13;2.20;;;;;;;22.82;100.00;99428.81;5027181;28;20040;-77
2023/07/13 03:16:51;;;;;;;5.28;2.20;;;;;;;22.75;100.00;99432.59;5030857;28;20116;-78
2023/07/13 03:19:19;;;;;;;2.95;2.65;;;;;;;22.78;100.00;99437.56;5025693;28;20507;-77
2023/07/13 03:21:48;;;;;;;5.88;2.10;;;;;;;22.83;100.00;99435.84;5026013;28;20029;-77
2023/07/13 03:24:13;;;;;;;2.60;2.00;;;;;;;22.87;100.00;99441.56;5024349;28;20030;-77
2023/07/13 03:26:39;;;;;;;4.35;2.03;;;;;;;22.79;100.00;99441.91;5026467;28;20056;-77
2023/07/13 03:29:05;;;;;;;3.30;2.33;;;;;;;22.82;100.00;99436.06;5022074;28;20080;-77
2023/07/13 03:31:34;;;;;;;5.28;2.50;;;;;;;22.85;100.00;99439.09;5027767;28;20124;-77
2023/07/13 03:34:00;;;;;;;4.80;1.92;;;;;;;22.87;100.00;99441.56;5023214;28;20052;-77
2023/07/13 03:36:29;;;;;;;2.95;2.20;;;;;;;22.88;100.00;99443.22;5026704;28;20029;-77
2023/07/13 03:38:58;;;;;;;;;;;;;;;22.84;100.00;99447.41;5024749;28;20041;-77
2023/07/13 03:41:28;;;;;;;2.40;2.20;;;;;;;22.84;100.00;99447.41;5025773;28;20344;-76
2023/07/13 03:43:54;;;;;;;2.65;2.40;;;;;;;22.82;100.00;99444.13;5023703;28;20034;-77
2023/07/13 03:46:22;;;;;;;3.58;2.53;;;;;;;22.80;100.00;99440.81;5030111;28;20557;-77
2023/07/13 03:48:48;;;;;;;5.97;2.53;;;;;;;22.70;100.00;99444.00;5024926;28;20125;-77
2023/07/13 03:51:15;;;;;;;2.30;2.10;;;;;;;22.75;100.00;99448.75;5027540;28;20041;-77
2023/07/13 03:53:43;;;;;;;3.53;2.53;;;;;;;22.73;100.00;99445.47;5023275;28;20026;-77
2023/07/13 03:56:10;;;;;;;4.97;2.58;;;;;;;22.70;100.00;99448.56;5025316;28;20057;-77
2023/07/13 03:58:38;;;;;;;3.42;2.22;;;;;;;22.70;100.00;99446.69;5024861;28;20426;-77
2023/07/13 04:01:12;;;;;;;3.53;2.05;;;;;;;22.68;100.00;99453.38;5025220;28;20076;-78
2023/07/13 04:03:38;;;;;;;3.60;2.35;;;;;;;22.69;100.00;99455.81;5025447;28;20044;-78
2023/07/13 04:06:06;;;;;;;4.70;2.30;;;;;;;22.63;100.00;99445.13;5027985;28;20033;-77
2023/07/13 04:08:34;;;;;;;5.40;2.20;;;;;;;22.61;100.00;99452.63;5039806;28;20029;-78
2023/07/13 04:11:00;;;;;;;5.72;2.50;;;;;;;22.58;100.00;99447.66;5025591;28;20033;-77
2023/07/13 04:13:26;;;;;;;3.03;2.10;;;;;;;22.63;100.00;99439.75;5026229;28;20480;-78
2023/07/13 04:15:52;;;;;;;4.80;2.38;;;;;;;22.68;100.00;99438.03;5029464;28;20032;-78
2023/07/13 04:18:19;;;;;;;2.95;2.55;;;;;;;22.66;100.00;99428.56;5030033;28;20477;-77
2023/07/13 04:20:47;;;;;;;6.30;2.50;;;;;;;22.55;100.00;99427.44;5024343;28;20462;-78
2023/07/13 04:23:13;;;;;;;3.20;2.40;;;;;;;22.56;100.00;99428.25;5024039;28;20033;-78
2023/07/13 04:25:44;;;;;;;5.70;3.00;;;;;;;22.53;100.00;99436.75;5027444;28;20041;-77
2023/07/13 04:28:09;;;;;;;2.50;2.30;;;;;;;22.54;100.00;99427.66;5024893;28;20037;-78
2023/07/13 04:30:35;;;;;;;4.78;2.75;;;;;;;22.61;100.00;99431.09;5029039;28;20413;-78
2023/07/13 04:33:00;;;;;;;3.55;2.72;;;;;;;22.59;100.00;99433.19;5025064;28;20052;-78
2023/07/13 04:35:26;;;;;;;3.95;2.38;;;;;;;22.63;100.00;99439.75;5023434;28;20034;-77
2023/07/13 04:37:52;;;;;;;3.08;2.22;;;;;;;22.56;100.00;99444.41;5026948;28;20029;-78
2023/07/13 04:40:18;;;;;;;4.45;2.60;;;;;;;22.62;100.00;99459.63;5025880;28;20033;-79
2023/07/13 04:42:45;;;;;;;2.80;2.45;;;;;;;22.64;100.00;99457.53;5024241;28;20074;-78
2023/07/13 04:45:10;;;;;;;3.28;2.33;;;;;;;22.66;100.00;99458.13;5028313;28;20025;-79
2023/07/13 04:47:36;;;;;;;2.40;2.20;;;;;;;22.74;100.00;99452.47;5031560;28;20374;-78
2023/07/13 04:50:02;;;;;;;5.55;2.20;;;;;;;22.77;100.00;99460.13;5022664;28;20111;-77
2023/07/13 04:52:27;;;;;;;4.07;2.17;;;;;;;22.77;100.00;99458.25;5027957;28;20029;-78
2023/07/13 04:54:53;;;;;;;4.72;2.38;;;;;;;22.79;100.00;99471.50;5024589;28;20030;-78
2023/07/13 04:57:18;;;;;;;3.53;2.60;;;;;;;22.81;100.00;99459.44;5025088;28;20026;-76
2023/07/13 04:59:43;;;;;;;3.83;2.47;;;;;;;22.77;100.00;99460.13;5024325;28;20033;-77
2023/07/13 05:02:09;;;;;;;5.22;2.50;;;;;;;22.72;100.00;99454.59;5024659;28;20029;-78
2023/07/13 05:04:35;;;;;;;2.60;2.40;;;;;;;22.79;100.00;99460.72;5026329;28;20065;-77
2023/07/13 05:07:00;;;;;;;5.85;2.88;;;;;;;22.80;100.00;99456.97;5024101;28;20030;-78
2023/07/13 05:09:26;;;;;;;6.10;2.90;;;;;;;22.79;100.00;99455.34;5026769;28;20034;-77
2023/07/13 05:11:52;;;;;;;3.67;2.20;;;;;;;22.85;100.00;99452.56;5029374;28;20060;-78
2023/07/13 05:14:17;;;;;;;4.05;2.50;;;;;;;22.85;100.00;99451.75;5029274;28;20478;-78
2023/07/13 05:16:43;;;;;;;7.20;2.70;;;;;;;22.90;100.00;99451.91;5033757;28;20064;-77
2023/07/13 05:19:10;;;;;;;3.90;2.22;;;;;;;22.90;100.00;99451.09;5033927;28;20105;-77
2023/07/13 05:21:35;;;;;;;2.83;2.60;;;;;;;22.87;100.00;99452.34;5026262;28;20087;-77
2023/07/13 05:24:00;;;;;;;2.67;2.20;;;;;;;22.78;100.00;99456.38;5029504;28;20390;-78
2023/07/13 05:26:26;;;;;;;4.13;2.67;;;;;;;22.74;100.00;99452.47;5034795;28;20539;-78
2023/07/13 05:28:52;;;;;;;2.45;2.25;;;;;;;22.70;100.00;99454.78;5033609;28;20057;-77
2023/07/13 05:31:30;;;;;;;3.83;2.63;;;;;;;22.71;100.00;99450.22;5033586;28;20045;-77
2023/07/13 05:33:56;;;;;;;6.30;2.53;;;;;;;22.70;100.00;99456.63;4993246;28;20216;-79
2023/07/13 05:36:22;;;;;;;4.75;2.10;;;;;;;22.65;100.00;99459.19;4998738;28;20030;-77
2023/07/13 05:38:47;;;;;;;2.95;2.65;;;;;;;22.71;100.00;99461.81;4998109;28;20042;-78
2023/07/13 05:41:13;;;;;;;3.55;2.08;;;;;;;22.62;100.00;99465.03;4996300;28;20034;-78
2023/07/13 05:43:39;;;;;;;2.85;2.50;;;;;;;22.65;100.00;99464.56;5000260;28;20108;-78
2023/07/13 05:46:04;;;;;;;2.78;2.50;;;;;;;22.67;100.00;99465.16;4999677;28;20034;-79
2023/07/13 05:48:30;;;;;;;4.82;2.88;;;;;;;22.73;100.00;99461.63;4988986;28;20037;-79
2023/07/13 05:50:55;;;;;;;2.33;2.13;;;;;;;22.81;100.00;99462.13;5007389;28;20035;-80
2023/07/13 05:53:21;;;;;;;5.60;3.03;;;;;;;22.90;100.00;99465.34;5001898;28;20549;-78
2023/07/13 05:55:49;;;;;;;5.32;2.78;;;;;;;22.99;100.00;99464.00;5003089;28;20485;-79
2023/07/13 05:58:16;;;;;;;4.13;2.53;;;;;;;23.06;100.00;99472.81;5001203;28;20390;-78
2023/07/13 06:00:42;;;;;;;5.07;2.60;;;;;;;23.09;100.00;99466.97;4997413;28;20029;-78
2023/07/13 06:03:07;;;;;;;3.47;2.75;;;;;;;23.14;100.00;99469.84;4998797;28;20061;-77
2023/07/13 06:05:35;;;;;;;3.53;2.40;;;;;;;23.20;100.00;99474.31;5001138;28;20122;-78
2023/07/13 06:08:01;;;;;;;3.20;2.60;;;;;;;23.24;100.00;99478.19;4997118;28;20430;-77
2023/07/13 06:10:27;;;;;;;6.60;2.75;;;;;;;23.24;100.00;99480.88;5001165;28;20019;-87
2023/07/13 06:12:52;;;;;;;3.63;2.53;;;;;;;23.14;100.00;99480.59;5012106;28;20042;-86
2023/07/13 06:15:18;;;;;;;2.80;2.47;;;;;;;23.17;100.00;99480.13;5014679;28;20037;-84
2023/07/13 06:17:43;;;;;;;5.95;2.83;;;;;;;23.10;100.00;99483.94;5016401;28;20063;-88
2023/07/13 06:20:09;;;;;;;4.95;2.60;;;;;;;23.17;100.00;99490.06;5014619;28;20042;-86
2023/07/13 06:22:35;;;;;;;7.65;3.28;;;;;;;23.23;100.00;99487.31;5008579;28;20115;-86
2023/07/13 06:25:00;;;;;;;3.85;3.35;;;;;;;23.19;100.00;99477.22;4995449;28;20041;-85
2023/07/13 06:27:26;;;;;;;4.95;3.25;;;;;;;23.09;100.00;99487.72;4999509;28;20062;-85
2023/07/13 06:29:51;;;;;;;5.30;3.28;;;;;;;23.02;100.00;99481.56;4983730;28;20031;-85
2023/07/13 06:32:17;;;;;;;5.20;3.08;;;;;;;23.11;100.00;99488.28;4992526;28;20065;-84
2023/07/13 06:34:43;;;;;;;5.75;3.17;;;;;;;23.12;100.00;99488.06;4996979;28;20035;-85
2023/07/13 06:37:10;;;;;;;4.13;3.03;;;;;;;23.10;100.00;99490.16;4994855;28;20034;-84
2023/07/13 06:39:35;;;;;;;6.72;3.13;;;;;;;23.06;100.00;99486.28;5001320;28;20034;-82
2023/07/13 06:42:01;;;;;;;6.97;3.00;;;;;;;23.12;100.00;99482.69;4999414;28;20030;-87
2023/07/13 06:44:27;;;;;;;4.88;3.20;;;;;;;23.07;100.00;99487.94;5004204;28;20027;-86
2023/07/13 06:46:53;;;;;;;3.72;2.90;;;;;;;23.09;100.00;99493.88;5003042;28;20040;-85
2023/07/13 06:49:18;;;;;;;4.38;3.53;;;;;;;23.00;100.00;99484.47;4997597;28;20057;-87
2023/07/13 06:51:44;;;;;;;4.80;3.22;;;;;;;22.98;100.00;99494.63;4996110;28;20129;-85
2023/07/13 06:54:10;;;;;;;3.83;2.60;;;;;;;23.13;100.00;99495.09;5004526;28;20038;-87
2023/07/13 06:56:35;;;;;;;4.78;3.03;;;;;;;23.23;100.00;99490.00;5006120;28;20055;-86
2023/07/13 06:59:01;;;;;;;2.78;2.58;;;;;;;23.19;100.00;99483.44;5002862;28;20027;-86
2023/07/13 07:01:26;;;;;;;3.47;2.60;;;;;;;23.26;100.00;99500.34;4994956;28;20038;-86
2023/07/13 07:03:52;;;;;;;4.32;2.90;;;;;;;23.24;100.00;99507.81;5014802;28;20039;-85
2023/07/13 07:06:21;;;;;;;3.90;2.55;;;;;;;23.38;100.00;99503.09;5000789;28;20096;-86
2023/07/13 07:08:47;;;;;;;4.60;2.42;;;;;;;23.38;100.00;99491.50;4999368;28;20094;-86
2023/07/13 07:11:16;;;;;;;4.80;2.50;;;;;;;23.46;100.00;99494.69;5001602;28;20049;-85
2023/07/13 07:13:42;;;;;;;2.97;2.55;;;;;;;23.48;100.00;99497.19;4998337;28;20050;-86
2023/07/13 07:16:08;;;;;;;3.33;2.75;;;;;;;23.41;100.00;99499.09;4996276;28;20094;-87
2023/07/13 07:18:34;;;;;;;5.35;3.13;;;;;;;23.56;100.00;99494.19;4996946;28;20509;-86
2023/07/13 07:21:00;;;;;;;4.68;2.75;;;;;;;23.67;100.00;99505.00;4996319;28;20093;-86
2023/07/13 07:23:26;;;;;;;4.82;2.72;;;;;;;23.72;100.00;99504.31;5010398;28;20131;-83
2023/07/13 07:25:52;;;;;;;2.95;2.25;;;;;;;23.86;100.00;99504.91;4993325;28;20034;-87
2023/07/13 07:28:18;;;;;;;4.80;2.65;;;;;;;23.77;100.00;99503.59;5010144;28;20063;-87
2023/07/13 07:30:45;;;;;;;4.95;2.88;;;;;;;23.58;100.00;99513.59;4996137;28;20057;-86
2023/07/13 07:33:10;;;;;;;2.90;2.35;;;;;;;23.49;100.00;99505.03;4979987;28;20062;-88
2023/07/13 07:35:36;;;;;;;4.07;2.40;;;;;;;23.51;100.00;99508.31;4996001;28;20068;-84
2023/07/13 07:38:02;;;;;;;5.55;2.45;;;;;;;23.63;100.00;99513.75;4993542;28;20422;-84
2023/07/13 07:40:28;;;;;;;4.05;2.67;;;;;;;23.77;100.00;99512.53;4993930;28;20434;-82
2023/07/13 07:42:55;;;;;;;3.83;2.15;;;;;;;23.91;100.00;99516.69;4992888;28;20039;-85
2023/07/13 07:45:21;;;;;;;2.80;2.13;;;;;;;24.01;100.00;99518.81;4991248;28;20080;-83
2023/07/13 07:47:47;;;;;;;3.20;2.50;;;;;;;24.14;100.00;99523.19;4984163;28;20053;-85
2023/07/13 07:50:13;;;;;;;3.17;1.92;;;;;;;24.27;100.00;99528.41;4992071;28;20030;-85
2023/07/13 07:52:39;;;;;;;3.55;2.50;;;;;;;24.35;100.00;99530.72;5007607;28;20172;-84
2023/07/13 07:55:06;;;;;;;2.80;2.05;;;;;;;24.44;100.00;99532.88;4994955;28;20058;-84
2023/07/13 07:57:32;;;;;;;4.82;2.30;;;;;;;24.56;100.00;99537.44;4987551;28;20026;-86
2023/07/13 07:59:58;;;;;;;5.75;2.03;;;;;;;24.66;100.00;99537.69;4993163;28;20041;-84
2023/07/13 08:02:25;;;;;;;5.35;2.03;;;;;;;24.80;100.00;99531.81;4993038;28;20041;-85
2023/07/13 08:04:51;;;;;;;6.82;2.40;;;;;;;24.94;100.00;99543.22;5005510;28;20487;-85
2023/07/13 08:07:17;;;;;;;4.28;2.20;;;;;;;25.09;100.00;99543.56;4993962;28;20511;-86
2023/07/13 08:09:43;;;;;;;4.22;2.35;;;;;;;25.17;100.00;99545.06;4990894;28;20031;-83
2023/07/13 08:12:08;;;;;;;3.38;2.75;;;;;;;25.14;100.00;99542.84;4993244;28;20030;-82
2023/07/13 08:14:34;;;;;;;4.18;2.20;;;;;;;25.13;100.00;99543.91;4989828;28;20113;-83
2023/07/13 08:17:00;;;;;;;2.95;2.00;;;;;;;25.15;100.00;99526.38;4989755;28;20037;-81
2023/07/13 08:19:25;;;;;;;3.35;2.10;;;;;;;25.21;100.00;99530.84;4991712;28;20061;-85
2023/07/13 08:21:51;;;;;;;4.47;2.65;;;;;;;25.20;100.00;99528.41;4994268;28;20047;-81
2023/07/13 08:24:18;;;;;;;3.53;2.47;;;;;;;25.20;100.00;99528.41;4993625;28;20498;-86
2023/07/13 08:26:46;;;;;;;4.10;2.60;;;;;;;25.22;100.00;99518.16;4993253;28;20034;-83
2023/07/13 08:29:12;;;;;;;2.90;2.25;;;;;;;25.28;100.00;99519.91;4992874;28;20030;-83
2023/07/13 08:31:38;;;;;;;7.32;2.25;;;;;;;25.37;100.00;99517.66;5001485;28;20069;-87
2023/07/13 08:34:04;;;;;;;6.63;2.75;;;;;;;25.51;100.00;99519.84;4994820;28;20041;-87
2023/07/13 08:36:29;;;;;;;4.78;2.35;;;;;;;25.61;100.00;99514.69;4991255;28;20125;-87
2023/07/13 08:38:55;;;;;;;2.92;2.22;;;;;;;25.63;100.00;99520.66;4992672;28;20034;-85
2023/07/13 08:41:21;;;;;;;4.43;2.63;;;;;;;25.52;100.00;99521.47;4993342;28;20034;-87
2023/07/13 08:43:54;;;;;;;4.50;3.20;;;;;;;25.27;100.00;99523.69;4994172;28;20161;-87
2023/07/13 08:46:38;;;;;;;6.82;3.42;;;;;;;25.08;100.00;99525.72;4993837;28;20042;-86
2023/07/13 08:49:11;;;;;;;4.88;2.80;;;;;;;25.05;100.00;99520.78;4991618;28;20039;-85
2023/07/13 08:51:46;;;;;;;3.97;2.40;;;;;;;25.17;100.00;99523.47;4991770;28;20042;-87
2023/07/13 08:54:21;;;;;;;3.30;2.55;;;;;;;25.28;100.00;99519.91;4996365;28;20394;-85
2023/07/13 08:56:47;;;;;;;3.78;2.97;;;;;;;25.36;100.00;99522.25;4998033;28;20046;-84
2023/07/13 08:59:19;;;;;;;6.38;3.15;;;;;;;25.17;100.00;99528.84;4996583;28;20057;-89
2023/07/13 09:01:50;;;;;;;5.15;2.67;;;;;;;25.23;100.00;99522.50;5003091;28;20398;-88
2023/07/13 09:04:27;;;;;;;4.25;3.10;;;;;;;25.30;100.00;99517.81;4999995;28;20037;-88
2023/07/13 09:06:54;;;;;;;4.43;2.67;;;;;;;25.39;100.00;99527.16;4993946;28;20117;-86
2023/07/13 09:09:54;;;;;;;4.82;2.70;;;;;;;25.53;100.00;99520.44;4994478;28;20030;-87
2023/07/13 09:12:53;;;;;;;6.72;2.67;;;;;;;25.54;100.00;99522.06;4995809;28;20039;-89
2023/07/13 09:15:30;;;;;;;5.75;2.80;;;;;;;25.53;100.00;99516.91;4995213;28;20046;-85
2023/07/13 09:18:06;;;;;;;4.80;3.28;;;;;;;25.60;100.00;99531.13;4994014;28;20102;-87
2023/07/13 09:20:46;;;;;;;6.57;3.42;;;;;;;25.68;100.00;99531.53;4986026;28;20046;-85
2023/07/13 09:23:17;;;;;;;5.00;3.08;;;;;;;25.75;100.00;99530.59;4990076;28;20027;-86
2023/07/13 09:25:47;;;;;;;5.55;3.00;;;;;;;25.84;100.00;99526.44;4993047;28;20038;-86
2023/07/13 09:28:20;;;;;;;6.10;3.08;;;;;;;25.71;100.00;99524.03;4993260;28;20026;-84
2023/07/13 09:30:56;;;;;;;7.10;3.53;;;;;;;25.79;100.00;99521.78;4992155;28;20472;-87
2023/07/13 09:33:22;;;;;;;4.78;3.05;;;;;;;25.89;100.00;99521.94;4988138;28;20042;-87
2023/07/13 09:35:49;;;;;;;5.93;2.85;;;;;;;25.99;100.00;99524.00;5004846;28;20035;-87
2023/07/13 09:38:18;;;;;;;3.67;2.80;;;;;;;26.09;100.00;99516.09;5007397;28;20111;-88
2023/07/13 09:40:50;;;;;;;8.27;3.03;;;;;;;26.18;100.00;99521.91;5011724;28;20022;-88
2023/07/13 09:43:18;;;;;;;5.13;2.92;;;;;;;26.26;100.00;99519.66;5008044;28;20045;-86
2023/07/13 09:45:47;;;;;;;5.82;3.10;;;;;;;26.38;100.00;99520.41;5011639;28;20037;-88
2023/07/13 09:48:15;;;;;;;5.28;3.05;;;;;;;26.45;100.00;99520.19;5012735;28;20037;-88
2023/07/13 09:50:42;;;;;;;7.15;3.08;;;;;;;26.54;100.00;99523.31;4999789;28;20038;-89
2023/07/13 09:53:18;;;;;;;9.25;3.65;;;;;;;26.59;100.00;99518.00;4996604;28;20049;-88
2023/07/13 09:55:46;;;;;;;8.52;3.72;;;;;;;26.66;100.00;99521.34;4991809;28;20038;-85
2023/07/13 09:58:24;;;;;;;7.03;3.63;;;;;;;26.74;100.00;99512.81;4990893;28;20027;-86
2023/07/13 10:01:00;;;;;;;9.13;3.03;;;;;;;26.81;100.00;99514.25;4996792;28;20035;-84
2023/07/13 10:03:37;;;;;;;5.25;3.28;;;;;;;26.86;100.00;99519.75;4994596;28;20176;-81
2023/07/13 10:06:19;;;;;;;7.40;3.08;;;;;;;26.95;100.00;99520.19;4994050;28;20047;-84
2023/07/13 10:08:49;;;;;;;9.38;4.03;;;;;;;27.03;100.00;99519.75;4993299;28;20037;-84
2023/07/13 10:11:20;;;;;;;;;;;;;;;27.10;100.00;99527.66;4994951;28;20132;-83
2023/07/13 10:13:53;;;;;;;5.43;3.53;;;;;;;27.15;100.00;99519.63;5010078;28;19925;-83
2023/07/13 10:16:20;;;;;;;5.43;3.05;;;;;;;27.21;100.00;99519.47;4994661;28;20037;-83
2023/07/13 10:18:50;;;;;;;4.70;3.05;;;;;;;27.26;100.00;99516.81;4993857;28;20065;-82
2023/07/13 10:21:21;;;;;;;;;;;;;;;27.34;100.00;99506.56;4997506;28;20397;-83
2023/07/13 10:23:52;;;;;;;;;;;;;;;27.41;100.00;99507.19;4992593;28;19922;-85
2023/07/13 10:26:21;;;;;;;;;;;;;;;27.47;100.00;99506.19;4995771;28;19928;-84
2023/07/13 10:28:50;;;;;;;;;;;;;;;27.49;100.00;99510.28;4992458;28;19924;-84
2023/07/13 10:31:16;;;;;;;;;;;;;;;27.43;100.00;99505.06;4994170;28;20300;-80
2023/07/13 10:33:42;;;;;;;;;;;;;;;27.47;100.00;99506.19;4996749;28;20397;-81
2023/07/13 10:36:27;;;;;;;;;;;;;;;27.54;100.00;99509.56;4997378;28;19993;-82
2023/07/13 10:38:55;;;;;;;;;;;;;;;27.63;100.00;99513.44;4993957;28;19993;-84
2023/07/13 10:41:23;;;;;;;;;;;;;;;27.73;100.00;99499.19;4994462;28;19932;-84
2023/07/13 10:43:53;;;;;;;;;;;;;;;27.81;100.00;99510.38;4993918;28;20408;-83
2023/07/13 10:46:22;;;;;;;;;;;;;;;27.89;100.00;99498.25;4994118;28;20370;-81
2023/07/13 10:48:52;;;;;;;;;;;;;;;27.94;100.00;99501.00;4993893;28;20384;-83
2023/07/13 10:51:20;;;;;;;;;;;;;;;27.99;100.00;99504.59;4993655;28;20408;-81
2023/07/13 10:53:45;;;;;;;;;;;;;;;28.04;100.00;99495.69;4993162;28;19918;-88
2023/07/13 10:56:14;;;;;;;;;;;;;;;28.03;100.00;99494.88;4991865;28;19964;-83
2023/07/13 10:58:40;;;;;;;;;;;;;;;28.09;100.00;99493.84;4995655;28;20362;-85
2023/07/13 11:01:05;;;;;;;;;;;;;;;28.20;100.00;99488.53;4992317;28;19941;-84
2023/07/13 11:03:34;;;;;;;11.05;2.80;;;;;;;28.30;100.00;99489.44;4989038;28;20079;-84
2023/07/13 11:06:41;;;;;;;7.45;3.25;;;;;;;28.42;100.00;99486.53;4987693;28;20133;-83
2023/07/13 11:09:21;;;;;;;;;;;;;;;28.48;100.00;99491.75;4992954;28;19922;-88
2023/07/13 11:11:47;;;;;;;;;;;;;;;28.52;100.00;99497.44;4994238;28;20397;-87
2023/07/13 11:14:30;;;;;;;;;;;;;;;28.55;100.00;99496.13;4993155;28;19925;-83
2023/07/13 11:16:55;;;;;;;;;;;;;;;28.63;100.00;99477.44;4992769;28;20397;-82
2023/07/13 11:19:25;;;;;;;;;;;;;;;28.74;100.00;99484.63;4989405;28;19922;-82
2023/07/13 11:22:09;;;;;;;;;;;;;;;28.81;100.00;99478.94;4989639;28;19949;-87
2023/07/13 11:24:54;;;;;;;;;;;;;;;28.88;100.00;99484.94;5001482;28;20342;-85
2023/07/13 11:27:31;;;;;;;;;;;;;;;28.87;100.00;99478.69;5003492;28;19965;-79
2023/07/13 11:30:20;;;;;;;;;;;;;;;28.76;100.00;99477.00;4988184;28;20302;-80
2023/07/13 11:32:49;;;;;;;;;;;;;;;28.69;100.00;99476.38;4986531;28;19922;-75
2023/07/13 11:35:19;;;;;;;;;;;;;;;28.73;100.00;99472.13;4991990;28;20452;-75